sensor_id;sensor_type;location;lat;lon;timestamp;temperature;humidity
28614;DHT22;15806;53.548;9.964;2022-11-03T00:01:37;10.30;99.90
28614;DHT22;15806;53.548;9.964;2022-11-03T00:03:17;10.30;99.90
28614;DHT22;15806;53.548;9.964;2022-11-03T00:04:58;10.30;99.90
28614;DHT22;15806;53.548;9.964;2022-11-03T00:06:40;10.30;99.90
28614;DHT22;15806;53.548;9.964;2022-11-03T00:08:20;10.20;99.90
28614;DHT22;15806;53.548;9.964;2022-11-03T00:10:01;10.20;99.90
28614;DHT22;15806;53.548;9.964;2022-11-03T00:11:44;10.20;99.90
28614;DHT22;15806;53.548;9.964;2022-11-03T00:13:24;10.20;99.90
28614;DHT22;15806;53.548;9.964;2022-11-03T00:15:05;10.20;99.90
28614;DHT22;15806;53.548;9.964;2022-11-03T00:16:46;10.20;99.90
28614;DHT22;15806;53.548;9.964;2022-11-03T00:18:26;10.20;99.90
28614;DHT22;15806;53.548;9.964;2022-11-03T00:20:08;10.20;99.90
28614;DHT22;15806;53.548;9.964;2022-11-03T00:21:48;10.20;99.90
28614;DHT22;15806;53.548;9.964;2022-11-03T00:23:31;10.20;99.90
28614;DHT22;15806;53.548;9.964;2022-11-03T00:25:12;10.20;99.90
28614;DHT22;15806;53.548;9.964;2022-11-03T00:26:52;10.20;99.90
28614;DHT22;15806;53.548;9.964;2022-11-03T00:28:33;10.20;99.90
28614;DHT22;15806;53.548;9.964;2022-11-03T00:30:14;10.20;99.90
28614;DHT22;15806;53.548;9.964;2022-11-03T00:31:54;10.20;99.90
28614;DHT22;15806;53.548;9.964;2022-11-03T00:33:36;10.20;99.90
28614;DHT22;15806;53.548;9.964;2022-11-03T00:35:16;10.20;99.90
28614;DHT22;15806;53.548;9.964;2022-11-03T00:36:57;10.20;99.90
28614;DHT22;15806;53.548;9.964;2022-11-03T00:38:37;10.10;99.90
28614;DHT22;15806;53.548;9.964;2022-11-03T00:40:18;10.20;99.90
28614;DHT22;15806;53.548;9.964;2022-11-03T00:41:58;10.30;99.90
28614;DHT22;15806;53.548;9.964;2022-11-03T00:43:39;10.20;99.90
28614;DHT22;15806;53.548;9.964;2022-11-03T00:45:22;10.20;99.90
28614;DHT22;15806;53.548;9.964;2022-11-03T00:47:02;10.20;99.90
28614;DHT22;15806;53.548;9.964;2022-11-03T00:48:43;10.20;99.90
28614;DHT22;15806;53.548;9.964;2022-11-03T00:50:24;10.20;99.90
28614;DHT22;15806;53.548;9.964;2022-11-03T00:52:04;10.20;99.90
28614;DHT22;15806;53.548;9.964;2022-11-03T00:53:50;10.20;99.90
28614;DHT22;15806;53.548;9.964;2022-11-03T00:55:31;10.10;99.90
28614;DHT22;15806;53.548;9.964;2022-11-03T00:57:11;10.10;99.90
28614;DHT22;15806;53.548;9.964;2022-11-03T00:58:53;10.10;99.90
28614;DHT22;15806;53.548;9.964;2022-11-03T01:00:34;10.10;99.90
28614;DHT22;15806;53.548;9.964;2022-11-03T01:02:14;10.10;99.90
28614;DHT22;15806;53.548;9.964;2022-11-03T01:03:56;10.10;99.90
28614;DHT22;15806;53.548;9.964;2022-11-03T01:05:43;10.10;99.90
28614;DHT22;15806;53.548;9.964;2022-11-03T01:07:24;10.10;99.90
28614;DHT22;15806;53.548;9.964;2022-11-03T01:09:04;10.20;99.90
28614;DHT22;15806;53.548;9.964;2022-11-03T01:10:45;10.20;99.90
28614;DHT22;15806;53.548;9.964;2022-11-03T01:12:26;10.20;99.90
28614;DHT22;15806;53.548;9.964;2022-11-03T01:14:12;10.10;99.90
28614;DHT22;15806;53.548;9.964;2022-11-03T01:15:57;10.10;99.90
28614;DHT22;15806;53.548;9.964;2022-11-03T01:17:38;10.10;99.90
28614;DHT22;15806;53.548;9.964;2022-11-03T01:19:19;10.00;99.90
28614;DHT22;15806;53.548;9.964;2022-11-03T01:20:59;10.00;99.90
28614;DHT22;15806;53.548;9.964;2022-11-03T01:22:40;10.00;99.90
28614;DHT22;15806;53.548;9.964;2022-11-03T01:24:20;10.00;99.90
28614;DHT22;15806;53.548;9.964;2022-11-03T01:26:09;10.00;99.90
28614;DHT22;15806;53.548;9.964;2022-11-03T01:27:49;10.00;99.90
28614;DHT22;15806;53.548;9.964;2022-11-03T01:29:30;10.00;99.90
28614;DHT22;15806;53.548;9.964;2022-11-03T01:31:17;10.00;99.90
28614;DHT22;15806;53.548;9.964;2022-11-03T01:32:58;10.00;99.90
28614;DHT22;15806;53.548;9.964;2022-11-03T01:34:39;10.00;99.90
28614;DHT22;15806;53.548;9.964;2022-11-03T01:36:20;10.00;99.90
28614;DHT22;15806;53.548;9.964;2022-11-03T01:38:01;10.00;99.90
28614;DHT22;15806;53.548;9.964;2022-11-03T01:39:41;9.90;99.90
28614;DHT22;15806;53.548;9.964;2022-11-03T01:41:26;9.90;99.90
28614;DHT22;15806;53.548;9.964;2022-11-03T01:43:15;9.90;99.90
28614;DHT22;15806;53.548;9.964;2022-11-03T01:44:55;9.90;99.90
28614;DHT22;15806;53.548;9.964;2022-11-03T01:46:43;9.90;99.90
28614;DHT22;15806;53.548;9.964;2022-11-03T01:48:25;9.90;99.90
28614;DHT22;15806;53.548;9.964;2022-11-03T01:50:10;9.90;99.90
28614;DHT22;15806;53.548;9.964;2022-11-03T01:52:05;9.90;99.90
28614;DHT22;15806;53.548;9.964;2022-11-03T01:53:48;9.90;99.90
28614;DHT22;15806;53.548;9.964;2022-11-03T01:55:33;10.00;99.90
28614;DHT22;15806;53.548;9.964;2022-11-03T01:57:19;10.00;99.90
28614;DHT22;15806;53.548;9.964;2022-11-03T01:59:01;9.90;99.90
28614;DHT22;15806;53.548;9.964;2022-11-03T02:00:45;9.90;99.90
28614;DHT22;15806;53.548;9.964;2022-11-03T02:02:26;9.90;99.90
28614;DHT22;15806;53.548;9.964;2022-11-03T02:04:11;9.90;99.90
28614;DHT22;15806;53.548;9.964;2022-11-03T02:05:53;9.90;99.90
28614;DHT22;15806;53.548;9.964;2022-11-03T02:09:24;9.90;99.90
28614;DHT22;15806;53.548;9.964;2022-11-03T02:11:05;10.00;99.90
28614;DHT22;15806;53.548;9.964;2022-11-03T02:12:47;10.00;99.90
28614;DHT22;15806;53.548;9.964;2022-11-03T02:14:28;9.90;99.90
28614;DHT22;15806;53.548;9.964;2022-11-03T02:16:08;9.90;99.90
28614;DHT22;15806;53.548;9.964;2022-11-03T02:17:51;9.90;99.90
28614;DHT22;15806;53.548;9.964;2022-11-03T02:19:39;10.00;99.90
28614;DHT22;15806;53.548;9.964;2022-11-03T02:21:28;9.90;99.90
28614;DHT22;15806;53.548;9.964;2022-11-03T02:23:16;9.90;99.90
28614;DHT22;15806;53.548;9.964;2022-11-03T02:25:07;9.90;99.90
28614;DHT22;15806;53.548;9.964;2022-11-03T02:26:53;9.90;99.90
28614;DHT22;15806;53.548;9.964;2022-11-03T02:28:34;9.90;99.90
28614;DHT22;15806;53.548;9.964;2022-11-03T02:30:15;9.90;99.90
28614;DHT22;15806;53.548;9.964;2022-11-03T02:32:03;10.00;99.90
28614;DHT22;15806;53.548;9.964;2022-11-03T02:35:53;10.00;99.90
28614;DHT22;15806;53.548;9.964;2022-11-03T02:37:41;10.00;99.90
28614;DHT22;15806;53.548;9.964;2022-11-03T02:39:35;10.00;99.90
28614;DHT22;15806;53.548;9.964;2022-11-03T02:41:17;10.00;99.90
28614;DHT22;15806;53.548;9.964;2022-11-03T02:42:58;10.00;99.90
28614;DHT22;15806;53.548;9.964;2022-11-03T02:44:41;10.00;99.90
28614;DHT22;15806;53.548;9.964;2022-11-03T02:46:23;10.00;99.90
28614;DHT22;15806;53.548;9.964;2022-11-03T02:48:05;10.00;99.90
28614;DHT22;15806;53.548;9.964;2022-11-03T02:49:48;10.10;99.90
28614;DHT22;15806;53.548;9.964;2022-11-03T02:51:29;10.00;99.90
28614;DHT22;15806;53.548;9.964;2022-11-03T02:53:13;10.10;99.90
28614;DHT22;15806;53.548;9.964;2022-11-03T02:54:54;10.00;99.90
28614;DHT22;15806;53.548;9.964;2022-11-03T02:56:46;10.10;99.90
28614;DHT22;15806;53.548;9.964;2022-11-03T02:58:41;10.00;99.90
28614;DHT22;15806;53.548;9.964;2022-11-03T03:00:26;10.00;99.90
28614;DHT22;15806;53.548;9.964;2022-11-03T03:02:14;10.00;99.90
28614;DHT22;15806;53.548;9.964;2022-11-03T03:04:00;10.10;99.90
28614;DHT22;15806;53.548;9.964;2022-11-03T03:05:43;10.00;99.90
28614;DHT22;15806;53.548;9.964;2022-11-03T03:07:31;10.00;99.90
28614;DHT22;15806;53.548;9.964;2022-11-03T03:09:19;10.10;99.90
28614;DHT22;15806;53.548;9.964;2022-11-03T03:11:02;10.10;99.90
28614;DHT22;15806;53.548;9.964;2022-11-03T03:12:50;10.20;99.90
28614;DHT22;15806;53.548;9.964;2022-11-03T03:14:39;10.10;99.90
28614;DHT22;15806;53.548;9.964;2022-11-03T03:16:25;10.10;99.90
28614;DHT22;15806;53.548;9.964;2022-11-03T03:18:19;10.10;99.90
28614;DHT22;15806;53.548;9.964;2022-11-03T03:20:22;10.10;99.90
28614;DHT22;15806;53.548;9.964;2022-11-03T03:22:14;10.10;99.90
28614;DHT22;15806;53.548;9.964;2022-11-03T03:24:03;10.20;99.90
28614;DHT22;15806;53.548;9.964;2022-11-03T03:26:08;10.20;99.90
28614;DHT22;15806;53.548;9.964;2022-11-03T03:27:53;10.30;99.90
28614;DHT22;15806;53.548;9.964;2022-11-03T03:29:43;10.30;99.90
28614;DHT22;15806;53.548;9.964;2022-11-03T03:31:26;10.20;99.90
28614;DHT22;15806;53.548;9.964;2022-11-03T03:33:09;10.20;99.90
28614;DHT22;15806;53.548;9.964;2022-11-03T03:34:51;10.20;99.90
28614;DHT22;15806;53.548;9.964;2022-11-03T03:36:34;10.20;99.90
28614;DHT22;15806;53.548;9.964;2022-11-03T03:38:27;10.20;99.90
28614;DHT22;15806;53.548;9.964;2022-11-03T03:40:11;10.20;99.90
28614;DHT22;15806;53.548;9.964;2022-11-03T03:41:54;10.20;99.90
28614;DHT22;15806;53.548;9.964;2022-11-03T03:43:37;10.20;99.90
28614;DHT22;15806;53.548;9.964;2022-11-03T03:45:21;10.20;99.90
28614;DHT22;15806;53.548;9.964;2022-11-03T03:47:12;10.30;99.90
28614;DHT22;15806;53.548;9.964;2022-11-03T03:48:54;10.30;99.90
28614;DHT22;15806;53.548;9.964;2022-11-03T03:50:37;10.30;99.90
28614;DHT22;15806;53.548;9.964;2022-11-03T03:52:19;10.30;99.90
28614;DHT22;15806;53.548;9.964;2022-11-03T03:53:59;10.30;99.90
28614;DHT22;15806;53.548;9.964;2022-11-03T03:55:49;10.40;99.90
28614;DHT22;15806;53.548;9.964;2022-11-03T03:57:30;10.40;99.90
28614;DHT22;15806;53.548;9.964;2022-11-03T03:59:11;10.40;99.90
28614;DHT22;15806;53.548;9.964;2022-11-03T04:00:51;10.40;99.90
28614;DHT22;15806;53.548;9.964;2022-11-03T04:02:32;10.40;99.90
28614;DHT22;15806;53.548;9.964;2022-11-03T04:04:12;10.40;99.90
28614;DHT22;15806;53.548;9.964;2022-11-03T04:05:53;10.40;99.90
28614;DHT22;15806;53.548;9.964;2022-11-03T04:07:33;10.40;99.90
28614;DHT22;15806;53.548;9.964;2022-11-03T04:09:14;10.40;99.90
28614;DHT22;15806;53.548;9.964;2022-11-03T04:10:55;10.40;99.90
28614;DHT22;15806;53.548;9.964;2022-11-03T04:12:35;10.40;99.90
28614;DHT22;15806;53.548;9.964;2022-11-03T04:14:16;10.40;99.90
28614;DHT22;15806;53.548;9.964;2022-11-03T04:15:58;10.40;99.90
28614;DHT22;15806;53.548;9.964;2022-11-03T04:17:42;10.50;99.90
28614;DHT22;15806;53.548;9.964;2022-11-03T04:19:23;10.40;99.90
28614;DHT22;15806;53.548;9.964;2022-11-03T04:21:05;10.50;99.90
28614;DHT22;15806;53.548;9.964;2022-11-03T04:22:45;10.50;99.90
28614;DHT22;15806;53.548;9.964;2022-11-03T04:24:26;10.50;99.90
28614;DHT22;15806;53.548;9.964;2022-11-03T04:26:14;10.50;99.90
28614;DHT22;15806;53.548;9.964;2022-11-03T04:27:55;10.50;99.90
28614;DHT22;15806;53.548;9.964;2022-11-03T04:29:35;10.50;99.90
28614;DHT22;15806;53.548;9.964;2022-11-03T04:31:17;10.50;99.90
28614;DHT22;15806;53.548;9.964;2022-11-03T04:32:58;10.50;99.90
28614;DHT22;15806;53.548;9.964;2022-11-03T04:34:40;10.50;99.90
28614;DHT22;15806;53.548;9.964;2022-11-03T04:36:22;10.50;99.90
28614;DHT22;15806;53.548;9.964;2022-11-03T04:38:29;10.50;99.90
28614;DHT22;15806;53.548;9.964;2022-11-03T04:40:14;10.50;99.90
28614;DHT22;15806;53.548;9.964;2022-11-03T04:41:54;10.50;99.90
28614;DHT22;15806;53.548;9.964;2022-11-03T04:43:37;10.60;99.90
28614;DHT22;15806;53.548;9.964;2022-11-03T04:47:01;10.50;99.90
28614;DHT22;15806;53.548;9.964;2022-11-03T04:48:44;10.60;99.90
28614;DHT22;15806;53.548;9.964;2022-11-03T04:50:25;10.60;99.90
28614;DHT22;15806;53.548;9.964;2022-11-03T04:52:13;10.50;99.90
28614;DHT22;15806;53.548;9.964;2022-11-03T04:54:01;10.50;99.90
28614;DHT22;15806;53.548;9.964;2022-11-03T04:55:44;10.50;99.90
28614;DHT22;15806;53.548;9.964;2022-11-03T04:57:27;10.60;99.90
28614;DHT22;15806;53.548;9.964;2022-11-03T04:59:11;10.60;99.90
28614;DHT22;15806;53.548;9.964;2022-11-03T05:00:54;10.60;99.90
28614;DHT22;15806;53.548;9.964;2022-11-03T05:02:35;10.60;99.90
28614;DHT22;15806;53.548;9.964;2022-11-03T05:04:16;10.60;99.90
28614;DHT22;15806;53.548;9.964;2022-11-03T05:05:59;10.60;99.90
28614;DHT22;15806;53.548;9.964;2022-11-03T05:07:41;10.60;99.90
28614;DHT22;15806;53.548;9.964;2022-11-03T05:09:25;10.60;99.90
28614;DHT22;15806;53.548;9.964;2022-11-03T05:11:30;10.60;99.90
28614;DHT22;15806;53.548;9.964;2022-11-03T05:13:23;10.60;99.90
28614;DHT22;15806;53.548;9.964;2022-11-03T05:15:13;10.60;99.90
28614;DHT22;15806;53.548;9.964;2022-11-03T05:17:14;10.50;99.90
28614;DHT22;15806;53.548;9.964;2022-11-03T05:18:57;10.60;99.90
28614;DHT22;15806;53.548;9.964;2022-11-03T05:20:43;10.70;99.90
28614;DHT22;15806;53.548;9.964;2022-11-03T05:22:25;10.60;99.90
28614;DHT22;15806;53.548;9.964;2022-11-03T05:24:11;10.70;99.90
28614;DHT22;15806;53.548;9.964;2022-11-03T05:25:53;10.70;99.90
28614;DHT22;15806;53.548;9.964;2022-11-03T05:27:35;10.70;99.90
28614;DHT22;15806;53.548;9.964;2022-11-03T05:29:23;10.70;99.90
28614;DHT22;15806;53.548;9.964;2022-11-03T05:32:59;10.70;99.90
28614;DHT22;15806;53.548;9.964;2022-11-03T05:34:46;10.70;99.90
28614;DHT22;15806;53.548;9.964;2022-11-03T05:36:30;10.60;99.90
28614;DHT22;15806;53.548;9.964;2022-11-03T05:38:14;10.70;99.90
28614;DHT22;15806;53.548;9.964;2022-11-03T05:39:58;10.70;99.90
28614;DHT22;15806;53.548;9.964;2022-11-03T05:41:39;10.70;99.90
28614;DHT22;15806;53.548;9.964;2022-11-03T05:43:20;10.80;99.90
28614;DHT22;15806;53.548;9.964;2022-11-03T05:45:32;10.70;99.90
28614;DHT22;15806;53.548;9.964;2022-11-03T05:47:21;10.70;99.90
28614;DHT22;15806;53.548;9.964;2022-11-03T05:49:03;10.80;99.90
28614;DHT22;15806;53.548;9.964;2022-11-03T05:50:46;10.80;99.90
28614;DHT22;15806;53.548;9.964;2022-11-03T05:52:27;10.70;99.90
28614;DHT22;15806;53.548;9.964;2022-11-03T05:54:11;10.80;99.90
28614;DHT22;15806;53.548;9.964;2022-11-03T05:56:00;10.70;99.90
28614;DHT22;15806;53.548;9.964;2022-11-03T05:57:41;10.70;99.90
28614;DHT22;15806;53.548;9.964;2022-11-03T05:59:26;10.70;99.90
28614;DHT22;15806;53.548;9.964;2022-11-03T06:01:31;10.80;99.90
28614;DHT22;15806;53.548;9.964;2022-11-03T06:03:20;10.80;99.90
28614;DHT22;15806;53.548;9.964;2022-11-03T06:05:28;10.80;99.90
28614;DHT22;15806;53.548;9.964;2022-11-03T06:07:13;10.80;99.90
28614;DHT22;15806;53.548;9.964;2022-11-03T06:08:55;10.80;99.90
28614;DHT22;15806;53.548;9.964;2022-11-03T06:10:40;10.90;99.90
28614;DHT22;15806;53.548;9.964;2022-11-03T06:12:21;10.90;99.90
28614;DHT22;15806;53.548;9.964;2022-11-03T06:14:18;10.90;99.90
28614;DHT22;15806;53.548;9.964;2022-11-03T06:16:24;10.80;99.90
28614;DHT22;15806;53.548;9.964;2022-11-03T06:18:18;10.80;99.90
28614;DHT22;15806;53.548;9.964;2022-11-03T06:19:59;10.90;99.90
28614;DHT22;15806;53.548;9.964;2022-11-03T06:21:40;10.90;99.90
28614;DHT22;15806;53.548;9.964;2022-11-03T06:23:22;10.90;99.90
28614;DHT22;15806;53.548;9.964;2022-11-03T06:27:02;10.90;99.90
28614;DHT22;15806;53.548;9.964;2022-11-03T06:28:44;10.90;99.90
28614;DHT22;15806;53.548;9.964;2022-11-03T06:30:32;10.90;99.90
28614;DHT22;15806;53.548;9.964;2022-11-03T06:32:13;10.90;99.90
28614;DHT22;15806;53.548;9.964;2022-11-03T06:33:54;10.90;99.90
28614;DHT22;15806;53.548;9.964;2022-11-03T06:35:35;10.90;99.90
28614;DHT22;15806;53.548;9.964;2022-11-03T06:37:30;11.00;99.90
28614;DHT22;15806;53.548;9.964;2022-11-03T06:39:22;10.90;99.90
28614;DHT22;15806;53.548;9.964;2022-11-03T06:41:03;11.00;99.90
28614;DHT22;15806;53.548;9.964;2022-11-03T06:42:43;10.90;99.90
28614;DHT22;15806;53.548;9.964;2022-11-03T06:44:25;11.00;99.90
28614;DHT22;15806;53.548;9.964;2022-11-03T06:46:23;10.90;99.90
28614;DHT22;15806;53.548;9.964;2022-11-03T06:48:06;10.90;99.90
28614;DHT22;15806;53.548;9.964;2022-11-03T06:49:58;10.90;99.90
28614;DHT22;15806;53.548;9.964;2022-11-03T06:51:39;10.90;99.90
28614;DHT22;15806;53.548;9.964;2022-11-03T06:53:26;10.90;99.90
28614;DHT22;15806;53.548;9.964;2022-11-03T06:55:24;11.00;99.90
28614;DHT22;15806;53.548;9.964;2022-11-03T06:57:11;10.90;99.90
28614;DHT22;15806;53.548;9.964;2022-11-03T06:58:54;10.90;99.90
28614;DHT22;15806;53.548;9.964;2022-11-03T07:00:37;10.90;99.90
28614;DHT22;15806;53.548;9.964;2022-11-03T07:02:58;11.00;99.90
28614;DHT22;15806;53.548;9.964;2022-11-03T07:04:41;11.00;99.90
28614;DHT22;15806;53.548;9.964;2022-11-03T07:06:24;10.90;99.90
28614;DHT22;15806;53.548;9.964;2022-11-03T07:09:58;11.00;99.90
28614;DHT22;15806;53.548;9.964;2022-11-03T07:11:45;10.90;99.90
28614;DHT22;15806;53.548;9.964;2022-11-03T07:13:29;11.00;99.90
28614;DHT22;15806;53.548;9.964;2022-11-03T07:15:26;11.00;99.90
28614;DHT22;15806;53.548;9.964;2022-11-03T07:17:15;10.80;99.90
28614;DHT22;15806;53.548;9.964;2022-11-03T07:18:58;10.90;99.90
28614;DHT22;15806;53.548;9.964;2022-11-03T07:20:39;10.90;99.90
28614;DHT22;15806;53.548;9.964;2022-11-03T07:24:23;10.90;99.90
28614;DHT22;15806;53.548;9.964;2022-11-03T07:26:06;11.00;99.90
28614;DHT22;15806;53.548;9.964;2022-11-03T07:27:49;10.90;99.90
28614;DHT22;15806;53.548;9.964;2022-11-03T07:29:34;11.00;99.90
28614;DHT22;15806;53.548;9.964;2022-11-03T07:31:19;11.10;99.90
28614;DHT22;15806;53.548;9.964;2022-11-03T07:33:15;11.10;99.90
28614;DHT22;15806;53.548;9.964;2022-11-03T07:35:08;11.10;99.90
28614;DHT22;15806;53.548;9.964;2022-11-03T07:36:56;11.10;99.90
28614;DHT22;15806;53.548;9.964;2022-11-03T07:38:37;11.00;99.90
28614;DHT22;15806;53.548;9.964;2022-11-03T07:40:22;11.10;99.90
28614;DHT22;15806;53.548;9.964;2022-11-03T07:42:16;11.10;99.90
28614;DHT22;15806;53.548;9.964;2022-11-03T07:43:58;11.10;99.90
28614;DHT22;15806;53.548;9.964;2022-11-03T07:45:42;11.10;99.90
28614;DHT22;15806;53.548;9.964;2022-11-03T07:47:24;11.00;99.90
28614;DHT22;15806;53.548;9.964;2022-11-03T07:49:07;11.10;99.90
28614;DHT22;15806;53.548;9.964;2022-11-03T07:50:55;11.10;99.90
28614;DHT22;15806;53.548;9.964;2022-11-03T07:52:36;11.10;99.90
28614;DHT22;15806;53.548;9.964;2022-11-03T07:54:21;11.10;99.90
28614;DHT22;15806;53.548;9.964;2022-11-03T07:57:59;11.20;99.90
28614;DHT22;15806;53.548;9.964;2022-11-03T07:59:48;11.30;99.90
28614;DHT22;15806;53.548;9.964;2022-11-03T08:01:39;11.30;99.90
28614;DHT22;15806;53.548;9.964;2022-11-03T08:03:36;11.20;99.90
28614;DHT22;15806;53.548;9.964;2022-11-03T08:05:20;11.20;99.90
28614;DHT22;15806;53.548;9.964;2022-11-03T08:07:01;11.20;99.90
28614;DHT22;15806;53.548;9.964;2022-11-03T08:08:41;11.30;99.90
28614;DHT22;15806;53.548;9.964;2022-11-03T08:10:22;11.40;99.90
28614;DHT22;15806;53.548;9.964;2022-11-03T08:12:03;11.40;99.90
28614;DHT22;15806;53.548;9.964;2022-11-03T08:13:43;11.50;99.90
28614;DHT22;15806;53.548;9.964;2022-11-03T08:15:24;11.50;99.90
28614;DHT22;15806;53.548;9.964;2022-11-03T08:17:04;11.40;99.90
28614;DHT22;15806;53.548;9.964;2022-11-03T08:18:45;11.50;99.90
28614;DHT22;15806;53.548;9.964;2022-11-03T08:20:26;11.50;99.90
28614;DHT22;15806;53.548;9.964;2022-11-03T08:22:06;11.50;99.90
28614;DHT22;15806;53.548;9.964;2022-11-03T08:23:47;11.60;99.90
28614;DHT22;15806;53.548;9.964;2022-11-03T08:25:27;11.60;99.90
28614;DHT22;15806;53.548;9.964;2022-11-03T08:27:08;11.50;99.90
28614;DHT22;15806;53.548;9.964;2022-11-03T08:28:48;11.50;99.90
28614;DHT22;15806;53.548;9.964;2022-11-03T08:30:30;11.60;99.90
28614;DHT22;15806;53.548;9.964;2022-11-03T08:32:10;11.50;99.90
28614;DHT22;15806;53.548;9.964;2022-11-03T08:33:51;11.70;99.90
28614;DHT22;15806;53.548;9.964;2022-11-03T08:35:32;11.70;99.90
28614;DHT22;15806;53.548;9.964;2022-11-03T08:37:12;11.70;99.90
28614;DHT22;15806;53.548;9.964;2022-11-03T08:38:53;11.70;99.90
28614;DHT22;15806;53.548;9.964;2022-11-03T08:40:33;11.80;99.90
28614;DHT22;15806;53.548;9.964;2022-11-03T08:42:14;11.80;99.90
28614;DHT22;15806;53.548;9.964;2022-11-03T08:43:54;11.90;99.90
28614;DHT22;15806;53.548;9.964;2022-11-03T08:45:35;11.80;99.90
28614;DHT22;15806;53.548;9.964;2022-11-03T08:47:15;11.80;99.90
28614;DHT22;15806;53.548;9.964;2022-11-03T08:48:56;11.90;99.90
28614;DHT22;15806;53.548;9.964;2022-11-03T08:50:36;11.90;99.90
28614;DHT22;15806;53.548;9.964;2022-11-03T08:52:17;11.80;99.90
28614;DHT22;15806;53.548;9.964;2022-11-03T08:53:58;11.80;99.90
28614;DHT22;15806;53.548;9.964;2022-11-03T08:55:38;11.80;99.90
28614;DHT22;15806;53.548;9.964;2022-11-03T08:57:19;11.80;99.90
28614;DHT22;15806;53.548;9.964;2022-11-03T08:58:59;11.80;99.90
28614;DHT22;15806;53.548;9.964;2022-11-03T09:00:40;11.80;99.90
28614;DHT22;15806;53.548;9.964;2022-11-03T09:02:21;11.80;99.90
28614;DHT22;15806;53.548;9.964;2022-11-03T09:04:02;11.90;99.90
28614;DHT22;15806;53.548;9.964;2022-11-03T09:05:42;11.90;99.90
28614;DHT22;15806;53.548;9.964;2022-11-03T09:07:23;11.90;99.90
28614;DHT22;15806;53.548;9.964;2022-11-03T09:09:03;11.90;99.90
28614;DHT22;15806;53.548;9.964;2022-11-03T09:10:44;12.00;99.90
28614;DHT22;15806;53.548;9.964;2022-11-03T09:12:25;12.10;99.90
28614;DHT22;15806;53.548;9.964;2022-11-03T09:14:06;12.10;99.90
28614;DHT22;15806;53.548;9.964;2022-11-03T09:15:46;12.10;99.90
28614;DHT22;15806;53.548;9.964;2022-11-03T09:17:27;12.10;99.90
28614;DHT22;15806;53.548;9.964;2022-11-03T09:19:07;12.10;99.90
28614;DHT22;15806;53.548;9.964;2022-11-03T09:20:48;12.20;99.90
28614;DHT22;15806;53.548;9.964;2022-11-03T09:22:29;12.20;99.90
28614;DHT22;15806;53.548;9.964;2022-11-03T09:24:09;12.20;99.90
28614;DHT22;15806;53.548;9.964;2022-11-03T09:25:51;12.10;99.90
28614;DHT22;15806;53.548;9.964;2022-11-03T09:27:31;12.00;99.90
28614;DHT22;15806;53.548;9.964;2022-11-03T09:29:12;12.10;99.90
28614;DHT22;15806;53.548;9.964;2022-11-03T09:30:52;12.10;99.90
28614;DHT22;15806;53.548;9.964;2022-11-03T09:32:33;12.10;99.90
28614;DHT22;15806;53.548;9.964;2022-11-03T09:34:14;12.20;99.90
28614;DHT22;15806;53.548;9.964;2022-11-03T09:35:54;12.00;99.90
28614;DHT22;15806;53.548;9.964;2022-11-03T09:37:35;12.20;99.90
28614;DHT22;15806;53.548;9.964;2022-11-03T09:39:16;12.30;99.90
28614;DHT22;15806;53.548;9.964;2022-11-03T09:40:56;12.40;99.90
28614;DHT22;15806;53.548;9.964;2022-11-03T09:42:38;12.20;99.90
28614;DHT22;15806;53.548;9.964;2022-11-03T09:44:19;12.20;99.90
28614;DHT22;15806;53.548;9.964;2022-11-03T09:46:00;12.20;99.90
28614;DHT22;15806;53.548;9.964;2022-11-03T09:47:41;12.40;99.90
28614;DHT22;15806;53.548;9.964;2022-11-03T09:49:23;12.50;99.90
28614;DHT22;15806;53.548;9.964;2022-11-03T09:51:04;12.40;99.90
28614;DHT22;15806;53.548;9.964;2022-11-03T09:52:46;12.40;99.90
28614;DHT22;15806;53.548;9.964;2022-11-03T09:54:27;12.40;99.90
28614;DHT22;15806;53.548;9.964;2022-11-03T09:56:09;12.50;99.90
28614;DHT22;15806;53.548;9.964;2022-11-03T09:57:59;12.50;99.90
28614;DHT22;15806;53.548;9.964;2022-11-03T09:59:43;12.60;99.90
28614;DHT22;15806;53.548;9.964;2022-11-03T10:01:24;12.70;99.90
28614;DHT22;15806;53.548;9.964;2022-11-03T10:03:04;12.70;99.90
28614;DHT22;15806;53.548;9.964;2022-11-03T10:04:45;12.70;99.90
28614;DHT22;15806;53.548;9.964;2022-11-03T10:06:26;12.60;99.90
28614;DHT22;15806;53.548;9.964;2022-11-03T10:08:15;12.80;99.90
28614;DHT22;15806;53.548;9.964;2022-11-03T10:09:58;12.60;99.90
28614;DHT22;15806;53.548;9.964;2022-11-03T10:11:38;12.70;99.90
28614;DHT22;15806;53.548;9.964;2022-11-03T10:13:29;12.80;99.90
28614;DHT22;15806;53.548;9.964;2022-11-03T10:15:17;12.80;99.90
28614;DHT22;15806;53.548;9.964;2022-11-03T10:16:59;12.80;99.90
28614;DHT22;15806;53.548;9.964;2022-11-03T10:18:41;12.80;99.90
28614;DHT22;15806;53.548;9.964;2022-11-03T10:20:22;12.90;99.90
28614;DHT22;15806;53.548;9.964;2022-11-03T10:22:02;13.00;99.90
28614;DHT22;15806;53.548;9.964;2022-11-03T10:23:43;12.80;99.90
28614;DHT22;15806;53.548;9.964;2022-11-03T10:27:24;13.00;99.90
28614;DHT22;15806;53.548;9.964;2022-11-03T10:29:06;13.00;99.90
28614;DHT22;15806;53.548;9.964;2022-11-03T10:31:19;13.10;99.90
28614;DHT22;15806;53.548;9.964;2022-11-03T10:33:00;13.10;99.90
28614;DHT22;15806;53.548;9.964;2022-11-03T10:34:40;13.10;99.90
28614;DHT22;15806;53.548;9.964;2022-11-03T10:36:29;13.00;99.90
28614;DHT22;15806;53.548;9.964;2022-11-03T10:38:27;13.10;99.90
28614;DHT22;15806;53.548;9.964;2022-11-03T10:40:35;13.00;99.90
28614;DHT22;15806;53.548;9.964;2022-11-03T10:42:20;13.10;99.90
28614;DHT22;15806;53.548;9.964;2022-11-03T10:44:19;13.30;99.90
28614;DHT22;15806;53.548;9.964;2022-11-03T10:46:10;13.40;99.90
28614;DHT22;15806;53.548;9.964;2022-11-03T10:48:03;13.20;99.90
28614;DHT22;15806;53.548;9.964;2022-11-03T10:49:44;13.30;99.90
28614;DHT22;15806;53.548;9.964;2022-11-03T10:51:24;13.40;99.90
28614;DHT22;15806;53.548;9.964;2022-11-03T10:53:16;13.50;99.90
28614;DHT22;15806;53.548;9.964;2022-11-03T10:54:58;13.60;99.90
28614;DHT22;15806;53.548;9.964;2022-11-03T10:56:40;13.60;99.90
28614;DHT22;15806;53.548;9.964;2022-11-03T10:58:21;13.60;99.90
28614;DHT22;15806;53.548;9.964;2022-11-03T11:00:02;13.70;99.90
28614;DHT22;15806;53.548;9.964;2022-11-03T11:01:43;13.70;99.90
28614;DHT22;15806;53.548;9.964;2022-11-03T11:03:23;13.80;99.90
28614;DHT22;15806;53.548;9.964;2022-11-03T11:05:16;13.80;99.90
28614;DHT22;15806;53.548;9.964;2022-11-03T11:06:58;13.90;99.90
28614;DHT22;15806;53.548;9.964;2022-11-03T11:08:38;13.80;99.90
28614;DHT22;15806;53.548;9.964;2022-11-03T11:10:23;13.90;99.90
28614;DHT22;15806;53.548;9.964;2022-11-03T11:12:15;13.90;99.90
28614;DHT22;15806;53.548;9.964;2022-11-03T11:22:12;14.00;99.90
28614;DHT22;15806;53.548;9.964;2022-11-03T11:23:52;14.50;99.90
28614;DHT22;15806;53.548;9.964;2022-11-03T11:28:10;14.70;99.90